Ana Sayfa
METAR-TAF:

METAR-TAF

Havaalanları :

Mudgee, Avustralya

Enlem: 32-33-45S, Boylam: 149-36-40E, yükseklik: 471 m

Güncel hava durumu gözlemi

Rapor saat 01:00 UTC de 30 dakika önce yapıldı.
Rüzgar güneydan 3 kt
Sıcaklık 11°C
Nem 54%
Basınç 1023 hPa
Görüş mesafesi 10 km veya daha fazla

METAR: YMDG 200100Z AUTO 17003KT 9999 // NCD 11/02 Q1023

Saat: 11:30 (01:30 UTC)


TAF: eksik

4.000'den fazla havaalanı için hava durumu gözlemleri ve tahminleri (METAR ve TAF raporları).

Kullanılabilir istasyonlar harita üzerinde sarı ve kırmızı noktalarla gösterilir.

İstasyonun adını görmek için fareyi noktanın üzerinde gezdirin.

Sonrasında hava gözlem ve tahminlerini görmek için tıklayın.

Haritayı değiştirmek için: yaklaştırmak için siyah artı işaretli yeşil düğmeye ve uzaklaştırmak için de eksi işaretli düğmeye hızla tıklayın; bitişik haritalar için yeşil okları kullanın.


METAR-TAF: